Ootaki — JG5445 — position and weather

sailwx.info

Track history (hours):
 
Tides and Currents Weather Stations Pressure Air Temp Water Temp Dewpoint Dewpoint Depression Visibility Wind Speed Wind Dir Waves Ship Positions

Ootaki

Last reported at 2018-Feb-25 03:24 UTC. Time now 2018-Feb-25 03:56 UTC.
Position N 35°18' E 139°42'.

Length 37 m; draft 4.5 m.

Type: Tug. MMSI: 431100219.

Date/timePositionNaut miles runAvg speedWind from/ knotsBaromVisibWave heightAir tempDewpointWater temp
2018-Feb-25 03:24N 35°18' E 139°42'1 1.2
2018-Feb-25 02:58N 35°18' E 139°42'0 0.6
2018-Feb-25 02:30N 35°18' E 139°42'0 0.8
2018-Feb-25 01:55N 35°18' E 139°43'0 0.1
2018-Feb-25 01:28N 35°18' E 139°43'1 1.3
2018-Feb-25 00:59N 35°18' E 139°42'1 1.3
2018-Feb-25 00:29N 35°18' E 139°43'0 0.1
2018-Feb-24 23:59N 35°18' E 139°43'1 1.0
2018-Feb-24 23:29N 35°18' E 139°42'0 0.8
2018-Feb-24 22:58N 35°18' E 139°42'0 0.4
2018-Feb-24 22:24N 35°18' E 139°42'1 1.8
2018-Feb-24 22:00N 35°17' E 139°41'1 1.3
2018-Feb-24 21:29N 35°17' E 139°41'0 0.0
2018-Feb-24 20:59N 35°17' E 139°41'0 0.0
2018-Feb-24 20:29N 35°17' E 139°41'0 0.0
2018-Feb-24 19:59N 35°17' E 139°41'0 0.0
2018-Feb-24 19:26N 35°17' E 139°41'0 0.0
2018-Feb-24 18:56N 35°17' E 139°41'0 0.0
2018-Feb-24 18:26N 35°17' E 139°41'0 0.0
2018-Feb-24 17:59N 35°17' E 139°41'0 0.0
2018-Feb-24 17:29N 35°17' E 139°41'0 0.0
2018-Feb-24 16:56N 35°17' E 139°41'0 0.0
2018-Feb-24 16:29N 35°17' E 139°41'0 0.0
2018-Feb-24 15:56N 35°17' E 139°41'0 0.0
2018-Feb-24 15:17N 35°17' E 139°41'0 0.0
2018-Feb-24 14:59N 35°17' E 139°41'0 0.0
2018-Feb-24 14:23N 35°17' E 139°41'0 0.0
2018-Feb-24 13:59N 35°17' E 139°41'0 0.0
2018-Feb-24 13:20N 35°17' E 139°41'0 0.0
2018-Feb-24 12:59N 35°17' E 139°41'0 0.0
2018-Feb-24 12:29N 35°17' E 139°41'0 0.0
2018-Feb-24 11:59N 35°17' E 139°41'0 0.0
2018-Feb-24 11:27N 35°17' E 139°41'0 0.0
2018-Feb-24 11:00N 35°17' E 139°41'0 0.0
2018-Feb-24 10:27N 35°17' E 139°41'0 0.0
2018-Feb-24 09:54N 35°17' E 139°41'0 0.0
2018-Feb-24 09:24N 35°17' E 139°41'0 0.0
2018-Feb-24 09:00N 35°17' E 139°41'0 0.0
2018-Feb-24 08:27N 35°17' E 139°41'0 0.0
2018-Feb-24 08:00N 35°17' E 139°41'0 0.0
2018-Feb-24 07:30N 35°17' E 139°41'0 0.0
2018-Feb-24 07:00N 35°17' E 139°41'0 0.0
2018-Feb-24 06:21N 35°17' E 139°41'0 0.0
2018-Feb-24 06:00N 35°17' E 139°41'0 0.0
2018-Feb-24 05:30N 35°17' E 139°41'0 0.0
2018-Feb-24 05:00N 35°17' E 139°41'0 0.0
2018-Feb-24 04:27N 35°17' E 139°41'2 3.7
2018-Feb-24 04:01N 35°18' E 139°42'0 0.3
2018-Feb-24 03:28N 35°18' E 139°43'0 0.5
2018-Feb-24 02:54N 35°17' E 139°43'0 0.2
2018-Feb-24 02:28N 35°18' E 139°43'0 0.6
2018-Feb-24 01:57N 35°18' E 139°43'0 0.2
2018-Feb-24 01:28N 35°18' E 139°43'0 0.1
2018-Feb-24 01:01N 35°18' E 139°43'0 0.2
2018-Feb-24 00:21N 35°18' E 139°43'2 3.4
2018-Feb-23 23:49N 35°17' E 139°41'0 0.0
2018-Feb-23 23:25N 35°17' E 139°41'0 0.0
2018-Feb-23 22:52N 35°17' E 139°41'0 0.0
2018-Feb-23 22:25N 35°17' E 139°41'0 0.0
2018-Feb-23 21:55N 35°17' E 139°41'0 0.0
2018-Feb-23 21:28N 35°17' E 139°41'1 1.2
2018-Feb-23 21:00N 35°17' E 139°41'713.5
2018-Feb-23 20:30N 35°23' E 139°45'1 2.5
2018-Feb-23 20:00N 35°22' E 139°45'610.5
2018-Feb-23 19:29N 35°16' E 139°46'510.5
2018-Feb-23 18:59N 35°11' E 139°47'1 2.2
2018-Feb-23 18:28N 35°10' E 139°48'1 2.5
2018-Feb-23 17:58N 35°12' E 139°47'4 7.9
2018-Feb-23 17:30N 35°15' E 139°45'4 8.1
2018-Feb-23 17:00N 35°17' E 139°41'1 1.4
2018-Feb-23 16:28N 35°17' E 139°41'0 0.0
2018-Feb-23 15:58N 35°17' E 139°41'0 0.0
2018-Feb-23 15:29N 35°17' E 139°41'0 0.0
2018-Feb-23 14:59N 35°17' E 139°41'0 0.0
2018-Feb-23 14:29N 35°17' E 139°41'0 0.0
2018-Feb-23 13:59N 35°17' E 139°41'0 0.0
2018-Feb-23 13:25N 35°17' E 139°41'0 0.0
2018-Feb-23 12:57N 35°17' E 139°41'2 2.5
2018-Feb-23 12:14N 35°18' E 139°42'0 1.5
2018-Feb-23 11:58N 35°18' E 139°42'1 1.3
2018-Feb-23 11:30N 35°17' E 139°42'1 1.7
2018-Feb-23 10:57N 35°17' E 139°41'0 0.0
2018-Feb-23 10:30N 35°17' E 139°41'0 0.0
2018-Feb-23 09:57N 35°17' E 139°41'0 0.0
2018-Feb-23 09:24N 35°17' E 139°41'0 0.0
2018-Feb-23 08:51N 35°17' E 139°41'0 0.0
2018-Feb-23 08:30N 35°17' E 139°41'0 0.0
2018-Feb-23 07:48N 35°17' E 139°41'0 0.0
2018-Feb-23 07:27N 35°17' E 139°41'0 0.0
2018-Feb-23 07:00N 35°17' E 139°41'2 3.2
2018-Feb-23 06:28N 35°17' E 139°43'0 0.2
2018-Feb-23 05:58N 35°17' E 139°43'0 0.1
2018-Feb-23 05:30N 35°17' E 139°43'0 0.5
2018-Feb-23 04:59N 35°17' E 139°43'1 1.1
2018-Feb-23 04:28N 35°18' E 139°42'0 0.3
2018-Feb-23 04:00N 35°18' E 139°42'2 3.3
2018-Feb-23 03:30N 35°17' E 139°41'0 0.0
2018-Feb-23 03:00N 35°17' E 139°41'0 0.0
2018-Feb-23 02:30N 35°17' E 139°41'0 0.0
2018-Feb-23 02:00N 35°17' E 139°41'0 0.0
2018-Feb-23 01:24N 35°17' E 139°41'0 0.1
2018-Feb-23 01:00N 35°17' E 139°41'2 2.8
2018-Feb-23 00:26N 35°18' E 139°42'0 0.6
2018-Feb-22 23:59N 35°18' E 139°42'0 0.6
2018-Feb-22 23:29N 35°18' E 139°42'1 1.3
2018-Feb-22 22:59N 35°18' E 139°43'0 0.5
2018-Feb-22 22:30N 35°18' E 139°43'0 0.4
2018-Feb-22 21:54N 35°18' E 139°42'2 4.6
2018-Feb-22 21:31N 35°17' E 139°41'0 0.0
2018-Feb-22 20:57N 35°17' E 139°41'0 0.0
2018-Feb-22 20:29N 35°17' E 139°41'0 0.0
2018-Feb-22 19:53N 35°17' E 139°41'0 0.0
2018-Feb-22 19:17N 35°17' E 139°41'0 0.0
2018-Feb-22 18:53N 35°17' E 139°41'0 0.0
2018-Feb-22 18:29N 35°17' E 139°41'0 0.0
2018-Feb-22 17:56N 35°17' E 139°41'0 0.0
2018-Feb-22 17:29N 35°17' E 139°41'0 0.0
2018-Feb-22 16:59N 35°17' E 139°41'0 0.0
2018-Feb-22 16:26N 35°17' E 139°41'0 0.0
2018-Feb-22 15:50N 35°17' E 139°41'0 0.0
2018-Feb-22 15:26N 35°17' E 139°41'0 0.0
2018-Feb-22 14:56N 35°17' E 139°41'0 0.0
2018-Feb-22 14:29N 35°17' E 139°41'0 0.0
2018-Feb-22 13:56N 35°17' E 139°41'0 0.0
2018-Feb-22 13:26N 35°17' E 139°41'0 0.0
2018-Feb-22 12:56N 35°17' E 139°41'0 0.0
2018-Feb-22 12:29N 35°17' E 139°41'0 0.0
2018-Feb-22 11:59N 35°17' E 139°41'0 0.0
2018-Feb-22 11:29N 35°17' E 139°41'0 0.0
2018-Feb-22 10:59N 35°17' E 139°41'0 0.0
2018-Feb-22 10:29N 35°17' E 139°41'0 0.0
2018-Feb-22 09:59N 35°17' E 139°41'0 0.0
2018-Feb-22 09:29N 35°17' E 139°41'0 0.0
2018-Feb-22 09:00N 35°17' E 139°41'1 3.0
2018-Feb-22 08:30N 35°18' E 139°42'0 0.5
2018-Feb-22 07:42N 35°18' E 139°42'0 0.3
2018-Feb-22 07:29N 35°18' E 139°42'2 3.7
2018-Feb-22 07:00N 35°17' E 139°41'0 0.1
2018-Feb-22 06:23N 35°17' E 139°41'0 0.0
2018-Feb-22 05:59N 35°17' E 139°41'0 0.0
2018-Feb-22 05:29N 35°17' E 139°41'0 0.0
2018-Feb-22 04:59N 35°17' E 139°41'0 0.0
2018-Feb-22 04:29N 35°17' E 139°41'0 0.0
2018-Feb-22 03:59N 35°17' E 139°41'0 0.0
2018-Feb-22 03:26N 35°17' E 139°41'0 0.0
2018-Feb-22 02:53N 35°17' E 139°41'1 3.4
2018-Feb-22 02:30N 35°18' E 139°42'2 3.4
2018-Feb-22 01:58N 35°19' E 139°40'0 0.1
2018-Feb-22 01:26N 35°19' E 139°40'2 5.0
2018-Feb-22 00:59N 35°17' E 139°41'2 3.6
2018-Feb-22 00:29N 35°19' E 139°41'1 1.2
2018-Feb-21 23:59N 35°19' E 139°40'0 0.2
2018-Feb-21 23:28N 35°19' E 139°40'1 2.9
2018-Feb-21 22:59N 35°19' E 139°42'511.6
2018-Feb-21 22:30N 35°24' E 139°43'611.2
2018-Feb-21 22:00N 35°28' E 139°49'1011.2
2018-Feb-21 21:06N 35°33' E 139°59'211.4
2018-Feb-21 20:58N 35°34' E 140°00'510.7
2018-Feb-21 20:30N 35°36' E 140°06'0 0.6
2018-Feb-21 20:00N 35°36' E 140°07'0 0.0
2018-Feb-21 19:30N 35°36' E 140°07'0 0.0
2018-Feb-21 19:00N 35°36' E 140°07'0 0.0
2018-Feb-21 18:30N 35°36' E 140°07'0 0.0
2018-Feb-21 18:00N 35°36' E 140°07'0 0.0
2018-Feb-21 17:30N 35°36' E 140°07'0 0.0
2018-Feb-21 17:00N 35°36' E 140°07'0 0.0
2018-Feb-21 16:30N 35°36' E 140°07'0 0.0
2018-Feb-21 16:00N 35°36' E 140°07'0 0.0
2018-Feb-21 15:30N 35°36' E 140°07'0 0.0
2018-Feb-21 15:00N 35°36' E 140°07'0 0.0
2018-Feb-21 14:30N 35°36' E 140°07'0 0.0
2018-Feb-21 14:00N 35°36' E 140°07'0 0.0
2018-Feb-21 13:30N 35°36' E 140°07'0 0.0
2018-Feb-21 13:00N 35°36' E 140°07'0 0.0
2018-Feb-21 12:30N 35°36' E 140°07'0 0.0
2018-Feb-21 12:00N 35°36' E 140°07'0 0.0
2018-Feb-21 11:30N 35°36' E 140°07'0 0.0
2018-Feb-21 11:00N 35°36' E 140°07'0 0.0
2018-Feb-21 10:30N 35°36' E 140°07'0 0.0
2018-Feb-21 10:00N 35°36' E 140°07'0 0.0
2018-Feb-21 09:30N 35°36' E 140°07'0 0.0
2018-Feb-21 09:00N 35°36' E 140°07'0 0.0
2018-Feb-21 08:30N 35°36' E 140°07'0 0.0
2018-Feb-21 08:00N 35°36' E 140°07'0 0.0
2018-Feb-21 07:30N 35°36' E 140°07'0 0.0
2018-Feb-21 07:00N 35°36' E 140°07'0 0.0
2018-Feb-21 06:30N 35°36' E 140°07'0 0.0
2018-Feb-21 06:00N 35°36' E 140°07'0 0.0
2018-Feb-21 05:30N 35°36' E 140°07'0 0.0
2018-Feb-21 05:00N 35°36' E 140°07'0 0.0
2018-Feb-21 04:30N 35°36' E 140°07'0 0.0
2018-Feb-21 04:00N 35°36' E 140°07'0 0.0
2018-Feb-21 03:24N 35°36' E 140°07'0 0.0
2018-Feb-21 03:00N 35°36' E 140°07'0 0.0
2018-Feb-21 02:30N 35°36' E 140°07'0 0.0
2018-Feb-21 02:00N 35°36' E 140°07'0 0.0
2018-Feb-21 01:30N 35°36' E 140°07'0 0.0
2018-Feb-21 01:00N 35°36' E 140°07'1 2.0
2018-Feb-21 00:30N 35°35' E 140°06'9 7.8
2018-Feb-20 23:19N 35°29' E 139°58'0 0.1
2018-Feb-20 22:09N 35°29' E 139°58'0 0.1
2018-Feb-20 20:53N 35°29' E 139°58'0 0.1
2018-Feb-20 19:57N 35°29' E 139°58'0 0.0
2018-Feb-20 18:33N 35°29' E 139°58'0 0.3
2018-Feb-20 18:15N 35°29' E 139°58'0 0.7
2018-Feb-20 17:58N 35°29' E 139°58'0 0.1
2018-Feb-20 16:28N 35°29' E 139°58'0 0.1
2018-Feb-20 15:55N 35°29' E 139°58'0 0.1
2018-Feb-20 15:02N 35°29' E 139°58'0 0.1
2018-Feb-20 14:36N 35°29' E 139°58'0 0.0
2018-Feb-20 10:47N 35°29' E 139°58'0 0.1
2018-Feb-20 09:12N 35°29' E 139°58'0 0.0
2018-Feb-20 08:01N 35°29' E 139°58'0 0.7
2018-Feb-20 08:00N 35°29' E 139°58'0 0.1
2018-Feb-20 06:29N 35°29' E 139°58'0 0.1
2018-Feb-20 05:51N 35°29' E 139°58'0 0.2
2018-Feb-20 05:13N 35°29' E 139°58'0 0.8
2018-Feb-20 05:00N 35°29' E 139°58'0 0.3
2018-Feb-20 04:30N 35°29' E 139°58'0 0.1
2018-Feb-20 03:56N 35°29' E 139°58'0 0.0
2018-Feb-20 00:23N 35°29' E 139°58'2 4.4
2018-Feb-19 23:57N 35°28' E 139°60'710.7
2018-Feb-19 23:19N 35°30' E 139°52'512.7
2018-Feb-19 22:55N 35°30' E 139°45'1 0.4
2018-Feb-19 20:20N 35°31' E 139°44'0 0.0
2018-Feb-19 19:47N 35°31' E 139°44'0 0.0
2018-Feb-19 19:29N 35°31' E 139°44'0 0.0
2018-Feb-19 13:11N 35°31' E 139°44'0 0.0
2018-Feb-19 10:26N 35°31' E 139°44'0 0.0
2018-Feb-19 09:44N 35°31' E 139°44'0 0.0
2018-Feb-19 08:20N 35°31' E 139°44'0 0.0
2018-Feb-19 07:56N 35°31' E 139°44'0 0.0
2018-Feb-19 05:56N 35°31' E 139°44'0 0.0
2018-Feb-19 05:05N 35°31' E 139°44'0 0.0
2018-Feb-19 04:38N 35°31' E 139°44'0 0.0
2018-Feb-19 04:17N 35°31' E 139°44'0 0.0
2018-Feb-19 02:41N 35°31' E 139°44'0 0.0
2018-Feb-18 23:47N 35°31' E 139°44'0 0.0
2018-Feb-18 22:41N 35°31' E 139°45'2 9.5
2018-Feb-18 22:27N 35°30' E 139°47'613.2
2018-Feb-18 22:00N 35°24' E 139°46'611.3
2018-Feb-18 21:30N 35°19' E 139°44'710.9
2018-Feb-18 20:54N 35°13' E 139°47'2 2.3
2018-Feb-18 20:07N 35°11' E 139°47'0 0.7
2018-Feb-18 19:57N 35°11' E 139°48'4 7.9
2018-Feb-18 19:27N 35°15' E 139°45'510.6
2018-Feb-18 19:00N 35°19' E 139°43'510.6
2018-Feb-18 18:30N 35°24' E 139°42'510.1
2018-Feb-18 17:58N 35°29' E 139°43'2 0.2
2018-Feb-18 06:34N 35°31' E 139°44'0 0.0
2018-Feb-18 06:22N 35°31' E 139°44'0 0.0
2018-Feb-18 05:04N 35°31' E 139°44'0 0.0
2018-Feb-18 04:58N 35°31' E 139°44'0 0.0
2018-Feb-18 04:22N 35°31' E 139°44'0 0.0
2018-Feb-18 03:53N 35°31' E 139°44'0 0.0
2018-Feb-18 03:29N 35°31' E 139°44'0 0.0
2018-Feb-18 02:25N 35°31' E 139°44'4 8.0
2018-Feb-18 01:58N 35°29' E 139°48'4 9.3
2018-Feb-18 01:30N 35°24' E 139°46'4 8.9
2018-Feb-18 01:00N 35°20' E 139°44'6 9.3
2018-Feb-18 00:23N 35°15' E 139°47'4 9.6
2018-Feb-18 00:00N 35°11' E 139°47'1 1.2
2018-Feb-17 23:24N 35°11' E 139°47'2 4.2
2018-Feb-17 22:56N 35°12' E 139°46'512.1
2018-Feb-17 22:30N 35°17' E 139°44'510.8
2018-Feb-17 22:00N 35°22' E 139°42'611.0
2018-Feb-17 21:30N 35°28' E 139°45'3 1.2
2018-Feb-17 18:42N 35°31' E 139°44'0 0.0
2018-Feb-17 18:27N 35°31' E 139°44'0 0.0
2018-Feb-17 17:06N 35°31' E 139°44'0 0.0
2018-Feb-17 12:48N 35°31' E 139°44'0 0.0
2018-Feb-17 09:33N 35°31' E 139°44'0 0.0
2018-Feb-17 08:19N 35°31' E 139°44'0 0.0
2018-Feb-17 07:46N 35°31' E 139°44'0 0.0
2018-Feb-17 07:28N 35°31' E 139°44'0 0.0
2018-Feb-17 06:40N 35°31' E 139°44'0 0.0
2018-Feb-17 06:28N 35°31' E 139°44'0 0.0
2018-Feb-17 05:43N 35°31' E 139°44'0 0.0
2018-Feb-17 04:03N 35°31' E 139°44'0 0.0
2018-Feb-17 03:33N 35°31' E 139°44'0 0.0
2018-Feb-17 03:18N 35°31' E 139°44'0 0.0
2018-Feb-17 02:57N 35°31' E 139°44'0 0.0
2018-Feb-17 01:42N 35°31' E 139°44'0 0.0
2018-Feb-17 01:27N 35°31' E 139°44'0 0.0
2018-Feb-17 00:57N 35°31' E 139°44'0 0.0
2018-Feb-17 00:27N 35°31' E 139°44'0 0.0
2018-Feb-16 23:51N 35°31' E 139°44'1 1.5
2018-Feb-16 23:30N 35°31' E 139°45'4 8.9
2018-Feb-16 23:00N 35°26' E 139°47'510.5
2018-Feb-16 22:30N 35°21' E 139°45'610.1
2018-Feb-16 21:51N 35°15' E 139°47'510.0
2018-Feb-16 21:24N 35°10' E 139°47'0 1.0
2018-Feb-16 20:55N 35°11' E 139°47'3 6.0
2018-Feb-16 20:25N 35°13' E 139°45'510.8
2018-Feb-16 20:00N 35°18' E 139°43'510.6
2018-Feb-16 19:30N 35°23' E 139°42'510.4
2018-Feb-16 18:59N 35°28' E 139°45'3 0.7
2018-Feb-16 14:07N 35°31' E 139°44'0 0.0
2018-Feb-16 12:53N 35°31' E 139°44'0 0.0
2018-Feb-16 09:20N 35°31' E 139°44'0 0.0
2018-Feb-16 08:44N 35°31' E 139°44'0 0.0
2018-Feb-16 08:17N 35°31' E 139°44'0 0.0
2018-Feb-16 07:59N 35°31' E 139°44'0 0.0
2018-Feb-16 02:41N 35°31' E 139°44'0 0.0
2018-Feb-16 01:14N 35°31' E 139°44'0 0.0
2018-Feb-15 22:53N 35°31' E 139°44'0 0.0
2018-Feb-15 22:29N 35°31' E 139°44'0 0.0
2018-Feb-15 21:53N 35°31' E 139°44'0 0.0
2018-Feb-15 18:29N 35°31' E 139°44'0 0.0
2018-Feb-15 16:35N 35°31' E 139°44'0 0.0
2018-Feb-15 14:48N 35°31' E 139°44'0 0.0
2018-Feb-15 12:12N 35°31' E 139°44'0 0.0
2018-Feb-15 10:36N 35°31' E 139°44'0 0.0
2018-Feb-15 08:51N 35°31' E 139°44'0 0.0
2018-Feb-15 08:27N 35°31' E 139°44'0 0.7
2018-Feb-15 08:00N 35°31' E 139°45'4 8.1
2018-Feb-15 07:30N 35°28' E 139°42'713.4
2018-Feb-15 07:00N 35°21' E 139°41'4 2.5
2018-Feb-15 05:24N 35°17' E 139°41'2 4.2
2018-Feb-15 04:57N 35°18' E 139°43'0 0.4
2018-Feb-15 04:26N 35°18' E 139°43'  
Track history (hours):
 
Tides and Currents Weather Stations Pressure Air Temp Water Temp Dewpoint Dewpoint Depression Visibility Wind Speed Wind Dir Waves Ship Positions

Ootaki

Last reported at 2018-Feb-25 03:24 UTC. Time now 2018-Feb-25 03:56 UTC.
Position N 35°18' E 139°42'.

Length 37 m; draft 4.5 m.

Type: Tug. MMSI: 431100219.

Date/timePositionNaut miles runAvg speedWind from/ knotsBaromVisibWave heightAir tempDewpointWater temp
2018-Feb-25 03:24N 35°18' E 139°42'1 1.2
2018-Feb-25 02:58N 35°18' E 139°42'0 0.6
2018-Feb-25 02:30N 35°18' E 139°42'0 0.8
2018-Feb-25 01:55N 35°18' E 139°43'0 0.1
2018-Feb-25 01:28N 35°18' E 139°43'1 1.3
2018-Feb-25 00:59N 35°18' E 139°42'1 1.3
2018-Feb-25 00:29N 35°18' E 139°43'0 0.1
2018-Feb-24 23:59N 35°18' E 139°43'1 1.0
2018-Feb-24 23:29N 35°18' E 139°42'0 0.8
2018-Feb-24 22:58N 35°18' E 139°42'0 0.4
2018-Feb-24 22:24N 35°18' E 139°42'1 1.8
2018-Feb-24 22:00N 35°17' E 139°41'1 1.3
2018-Feb-24 21:29N 35°17' E 139°41'0 0.0
2018-Feb-24 20:59N 35°17' E 139°41'0 0.0
2018-Feb-24 20:29N 35°17' E 139°41'0 0.0
2018-Feb-24 19:59N 35°17' E 139°41'0 0.0
2018-Feb-24 19:26N 35°17' E 139°41'0 0.0
2018-Feb-24 18:56N 35°17' E 139°41'0 0.0
2018-Feb-24 18:26N 35°17' E 139°41'0 0.0
2018-Feb-24 17:59N 35°17' E 139°41'0 0.0
2018-Feb-24 17:29N 35°17' E 139°41'0 0.0
2018-Feb-24 16:56N 35°17' E 139°41'0 0.0
2018-Feb-24 16:29N 35°17' E 139°41'0 0.0
2018-Feb-24 15:56N 35°17' E 139°41'0 0.0
2018-Feb-24 15:17N 35°17' E 139°41'0 0.0
2018-Feb-24 14:59N 35°17' E 139°41'0 0.0
2018-Feb-24 14:23N 35°17' E 139°41'0 0.0
2018-Feb-24 13:59N 35°17' E 139°41'0 0.0
2018-Feb-24 13:20N 35°17' E 139°41'0 0.0
2018-Feb-24 12:59N 35°17' E 139°41'0 0.0
2018-Feb-24 12:29N 35°17' E 139°41'0 0.0
2018-Feb-24 11:59N 35°17' E 139°41'0 0.0
2018-Feb-24 11:27N 35°17' E 139°41'0 0.0
2018-Feb-24 11:00N 35°17' E 139°41'0 0.0
2018-Feb-24 10:27N 35°17' E 139°41'0 0.0
2018-Feb-24 09:54N 35°17' E 139°41'0 0.0
2018-Feb-24 09:24N 35°17' E 139°41'0 0.0
2018-Feb-24 09:00N 35°17' E 139°41'0 0.0
2018-Feb-24 08:27N 35°17' E 139°41'0 0.0
2018-Feb-24 08:00N 35°17' E 139°41'0 0.0
2018-Feb-24 07:30N 35°17' E 139°41'0 0.0
2018-Feb-24 07:00N 35°17' E 139°41'0 0.0
2018-Feb-24 06:21N 35°17' E 139°41'0 0.0
2018-Feb-24 06:00N 35°17' E 139°41'0 0.0
2018-Feb-24 05:30N 35°17' E 139°41'0 0.0
2018-Feb-24 05:00N 35°17' E 139°41'0 0.0
2018-Feb-24 04:27N 35°17' E 139°41'2 3.7
2018-Feb-24 04:01N 35°18' E 139°42'0 0.3
2018-Feb-24 03:28N 35°18' E 139°43'0 0.5
2018-Feb-24 02:54N 35°17' E 139°43'0 0.2
2018-Feb-24 02:28N 35°18' E 139°43'0 0.6
2018-Feb-24 01:57N 35°18' E 139°43'0 0.2
2018-Feb-24 01:28N 35°18' E 139°43'0 0.1
2018-Feb-24 01:01N 35°18' E 139°43'0 0.2
2018-Feb-24 00:21N 35°18' E 139°43'2 3.4
2018-Feb-23 23:49N 35°17' E 139°41'0 0.0
2018-Feb-23 23:25N 35°17' E 139°41'0 0.0
2018-Feb-23 22:52N 35°17' E 139°41'0 0.0
2018-Feb-23 22:25N 35°17' E 139°41'0 0.0
2018-Feb-23 21:55N 35°17' E 139°41'0 0.0
2018-Feb-23 21:28N 35°17' E 139°41'1 1.2
2018-Feb-23 21:00N 35°17' E 139°41'713.5
2018-Feb-23 20:30N 35°23' E 139°45'1 2.5
2018-Feb-23 20:00N 35°22' E 139°45'610.5
2018-Feb-23 19:29N 35°16' E 139°46'510.5
2018-Feb-23 18:59N 35°11' E 139°47'1 2.2
2018-Feb-23 18:28N 35°10' E 139°48'1 2.5
2018-Feb-23 17:58N 35°12' E 139°47'4 7.9
2018-Feb-23 17:30N 35°15' E 139°45'4 8.1
2018-Feb-23 17:00N 35°17' E 139°41'1 1.4
2018-Feb-23 16:28N 35°17' E 139°41'0 0.0
2018-Feb-23 15:58N 35°17' E 139°41'0 0.0
2018-Feb-23 15:29N 35°17' E 139°41'0 0.0
2018-Feb-23 14:59N 35°17' E 139°41'0 0.0
2018-Feb-23 14:29N 35°17' E 139°41'0 0.0
2018-Feb-23 13:59N 35°17' E 139°41'0 0.0
2018-Feb-23 13:25N 35°17' E 139°41'0 0.0
2018-Feb-23 12:57N 35°17' E 139°41'2 2.5
2018-Feb-23 12:14N 35°18' E 139°42'0 1.5
2018-Feb-23 11:58N 35°18' E 139°42'1 1.3
2018-Feb-23 11:30N 35°17' E 139°42'1 1.7
2018-Feb-23 10:57N 35°17' E 139°41'0 0.0
2018-Feb-23 10:30N 35°17' E 139°41'0 0.0
2018-Feb-23 09:57N 35°17' E 139°41'0 0.0
2018-Feb-23 09:24N 35°17' E 139°41'0 0.0
2018-Feb-23 08:51N 35°17' E 139°41'0 0.0
2018-Feb-23 08:30N 35°17' E 139°41'0 0.0
2018-Feb-23 07:48N 35°17' E 139°41'0 0.0
2018-Feb-23 07:27N 35°17' E 139°41'0 0.0
2018-Feb-23 07:00N 35°17' E 139°41'2 3.2
2018-Feb-23 06:28N 35°17' E 139°43'0 0.2
2018-Feb-23 05:58N 35°17' E 139°43'0 0.1
2018-Feb-23 05:30N 35°17' E 139°43'0 0.5
2018-Feb-23 04:59N 35°17' E 139°43'1 1.1
2018-Feb-23 04:28N 35°18' E 139°42'0 0.3
2018-Feb-23 04:00N 35°18' E 139°42'2 3.3
2018-Feb-23 03:30N 35°17' E 139°41'0 0.0
2018-Feb-23 03:00N 35°17' E 139°41'0 0.0
2018-Feb-23 02:30N 35°17' E 139°41'0 0.0
2018-Feb-23 02:00N 35°17' E 139°41'0 0.0
2018-Feb-23 01:24N 35°17' E 139°41'0 0.1
2018-Feb-23 01:00N 35°17' E 139°41'2 2.8
2018-Feb-23 00:26N 35°18' E 139°42'0 0.6
2018-Feb-22 23:59N 35°18' E 139°42'0 0.6
2018-Feb-22 23:29N 35°18' E 139°42'1 1.3
2018-Feb-22 22:59N 35°18' E 139°43'0 0.5
2018-Feb-22 22:30N 35°18' E 139°43'0 0.4
2018-Feb-22 21:54N 35°18' E 139°42'2 4.6
2018-Feb-22 21:31N 35°17' E 139°41'0 0.0
2018-Feb-22 20:57N 35°17' E 139°41'0 0.0
2018-Feb-22 20:29N 35°17' E 139°41'0 0.0
2018-Feb-22 19:53N 35°17' E 139°41'0 0.0
2018-Feb-22 19:17N 35°17' E 139°41'0 0.0
2018-Feb-22 18:53N 35°17' E 139°41'0 0.0
2018-Feb-22 18:29N 35°17' E 139°41'0 0.0
2018-Feb-22 17:56N 35°17' E 139°41'0 0.0
2018-Feb-22 17:29N 35°17' E 139°41'0 0.0
2018-Feb-22 16:59N 35°17' E 139°41'0 0.0
2018-Feb-22 16:26N 35°17' E 139°41'0 0.0
2018-Feb-22 15:50N 35°17' E 139°41'0 0.0
2018-Feb-22 15:26N 35°17' E 139°41'0 0.0
2018-Feb-22 14:56N 35°17' E 139°41'0 0.0
2018-Feb-22 14:29N 35°17' E 139°41'0 0.0
2018-Feb-22 13:56N 35°17' E 139°41'0 0.0
2018-Feb-22 13:26N 35°17' E 139°41'0 0.0
2018-Feb-22 12:56N 35°17' E 139°41'0 0.0
2018-Feb-22 12:29N 35°17' E 139°41'0 0.0
2018-Feb-22 11:59N 35°17' E 139°41'0 0.0
2018-Feb-22 11:29N 35°17' E 139°41'0 0.0
2018-Feb-22 10:59N 35°17' E 139°41'0 0.0
2018-Feb-22 10:29N 35°17' E 139°41'0 0.0
2018-Feb-22 09:59N 35°17' E 139°41'0 0.0
2018-Feb-22 09:29N 35°17' E 139°41'0 0.0
2018-Feb-22 09:00N 35°17' E 139°41'1 3.0
2018-Feb-22 08:30N 35°18' E 139°42'0 0.5
2018-Feb-22 07:42N 35°18' E 139°42'0 0.3
2018-Feb-22 07:29N 35°18' E 139°42'2 3.7
2018-Feb-22 07:00N 35°17' E 139°41'0 0.1
2018-Feb-22 06:23N 35°17' E 139°41'0 0.0
2018-Feb-22 05:59N 35°17' E 139°41'0 0.0
2018-Feb-22 05:29N 35°17' E 139°41'0 0.0
2018-Feb-22 04:59N 35°17' E 139°41'0 0.0
2018-Feb-22 04:29N 35°17' E 139°41'0 0.0
2018-Feb-22 03:59N 35°17' E 139°41'0 0.0
2018-Feb-22 03:26N 35°17' E 139°41'0 0.0
2018-Feb-22 02:53N 35°17' E 139°41'1 3.4
2018-Feb-22 02:30N 35°18' E 139°42'2 3.4
2018-Feb-22 01:58N 35°19' E 139°40'0 0.1
2018-Feb-22 01:26N 35°19' E 139°40'2 5.0
2018-Feb-22 00:59N 35°17' E 139°41'2 3.6
2018-Feb-22 00:29N 35°19' E 139°41'1 1.2
2018-Feb-21 23:59N 35°19' E 139°40'0 0.2
2018-Feb-21 23:28N 35°19' E 139°40'1 2.9
2018-Feb-21 22:59N 35°19' E 139°42'511.6
2018-Feb-21 22:30N 35°24' E 139°43'611.2
2018-Feb-21 22:00N 35°28' E 139°49'1011.2
2018-Feb-21 21:06N 35°33' E 139°59'211.4
2018-Feb-21 20:58N 35°34' E 140°00'510.7
2018-Feb-21 20:30N 35°36' E 140°06'0 0.6
2018-Feb-21 20:00N 35°36' E 140°07'0 0.0
2018-Feb-21 19:30N 35°36' E 140°07'0 0.0
2018-Feb-21 19:00N 35°36' E 140°07'0 0.0
2018-Feb-21 18:30N 35°36' E 140°07'0 0.0
2018-Feb-21 18:00N 35°36' E 140°07'0 0.0
2018-Feb-21 17:30N 35°36' E 140°07'0 0.0
2018-Feb-21 17:00N 35°36' E 140°07'0 0.0
2018-Feb-21 16:30N 35°36' E 140°07'0 0.0
2018-Feb-21 16:00N 35°36' E 140°07'0 0.0
2018-Feb-21 15:30N 35°36' E 140°07'0 0.0
2018-Feb-21 15:00N 35°36' E 140°07'0 0.0
2018-Feb-21 14:30N 35°36' E 140°07'0 0.0
2018-Feb-21 14:00N 35°36' E 140°07'0 0.0
2018-Feb-21 13:30N 35°36' E 140°07'0 0.0
2018-Feb-21 13:00N 35°36' E 140°07'0 0.0
2018-Feb-21 12:30N 35°36' E 140°07'0 0.0
2018-Feb-21 12:00N 35°36' E 140°07'0 0.0
2018-Feb-21 11:30N 35°36' E 140°07'0 0.0
2018-Feb-21 11:00N 35°36' E 140°07'0 0.0
2018-Feb-21 10:30N 35°36' E 140°07'0 0.0
2018-Feb-21 10:00N 35°36' E 140°07'0 0.0
2018-Feb-21 09:30N 35°36' E 140°07'0 0.0
2018-Feb-21 09:00N 35°36' E 140°07'0 0.0
2018-Feb-21 08:30N 35°36' E 140°07'0 0.0
2018-Feb-21 08:00N 35°36' E 140°07'0 0.0
2018-Feb-21 07:30N 35°36' E 140°07'0 0.0
2018-Feb-21 07:00N 35°36' E 140°07'0 0.0
2018-Feb-21 06:30N 35°36' E 140°07'0 0.0
2018-Feb-21 06:00N 35°36' E 140°07'0 0.0
2018-Feb-21 05:30N 35°36' E 140°07'0 0.0
2018-Feb-21 05:00N 35°36' E 140°07'0 0.0
2018-Feb-21 04:30N 35°36' E 140°07'0 0.0
2018-Feb-21 04:00N 35°36' E 140°07'0 0.0
2018-Feb-21 03:24N 35°36' E 140°07'0 0.0
2018-Feb-21 03:00N 35°36' E 140°07'0 0.0
2018-Feb-21 02:30N 35°36' E 140°07'0 0.0
2018-Feb-21 02:00N 35°36' E 140°07'0 0.0
2018-Feb-21 01:30N 35°36' E 140°07'0 0.0
2018-Feb-21 01:00N 35°36' E 140°07'1 2.0
2018-Feb-21 00:30N 35°35' E 140°06'9 7.8
2018-Feb-20 23:19N 35°29' E 139°58'0 0.1
2018-Feb-20 22:09N 35°29' E 139°58'0 0.1
2018-Feb-20 20:53N 35°29' E 139°58'0 0.1
2018-Feb-20 19:57N 35°29' E 139°58'0 0.0
2018-Feb-20 18:33N 35°29' E 139°58'0 0.3
2018-Feb-20 18:15N 35°29' E 139°58'0 0.7
2018-Feb-20 17:58N 35°29' E 139°58'0 0.1
2018-Feb-20 16:28N 35°29' E 139°58'0 0.1
2018-Feb-20 15:55N 35°29' E 139°58'0 0.1
2018-Feb-20 15:02N 35°29' E 139°58'0 0.1
2018-Feb-20 14:36N 35°29' E 139°58'0 0.0
2018-Feb-20 10:47N 35°29' E 139°58'0 0.1
2018-Feb-20 09:12N 35°29' E 139°58'0 0.0
2018-Feb-20 08:01N 35°29' E 139°58'0 0.7
2018-Feb-20 08:00N 35°29' E 139°58'0 0.1
2018-Feb-20 06:29N 35°29' E 139°58'0 0.1
2018-Feb-20 05:51N 35°29' E 139°58'0 0.2
2018-Feb-20 05:13N 35°29' E 139°58'0 0.8
2018-Feb-20 05:00N 35°29' E 139°58'0 0.3
2018-Feb-20 04:30N 35°29' E 139°58'0 0.1
2018-Feb-20 03:56N 35°29' E 139°58'0 0.0
2018-Feb-20 00:23N 35°29' E 139°58'2 4.4
2018-Feb-19 23:57N 35°28' E 139°60'710.7
2018-Feb-19 23:19N 35°30' E 139°52'512.7
2018-Feb-19 22:55N 35°30' E 139°45'1 0.4
2018-Feb-19 20:20N 35°31' E 139°44'0 0.0
2018-Feb-19 19:47N 35°31' E 139°44'0 0.0
2018-Feb-19 19:29N 35°31' E 139°44'0 0.0
2018-Feb-19 13:11N 35°31' E 139°44'0 0.0
2018-Feb-19 10:26N 35°31' E 139°44'0 0.0
2018-Feb-19 09:44N 35°31' E 139°44'0 0.0
2018-Feb-19 08:20N 35°31' E 139°44'0 0.0
2018-Feb-19 07:56N 35°31' E 139°44'0 0.0
2018-Feb-19 05:56N 35°31' E 139°44'0 0.0
2018-Feb-19 05:05N 35°31' E 139°44'0 0.0
2018-Feb-19 04:38N 35°31' E 139°44'0 0.0
2018-Feb-19 04:17N 35°31' E 139°44'0 0.0
2018-Feb-19 02:41N 35°31' E 139°44'0 0.0
2018-Feb-18 23:47N 35°31' E 139°44'0 0.0
2018-Feb-18 22:41N 35°31' E 139°45'2 9.5
2018-Feb-18 22:27N 35°30' E 139°47'613.2
2018-Feb-18 22:00N 35°24' E 139°46'611.3
2018-Feb-18 21:30N 35°19' E 139°44'710.9
2018-Feb-18 20:54N 35°13' E 139°47'2 2.3
2018-Feb-18 20:07N 35°11' E 139°47'0 0.7
2018-Feb-18 19:57N 35°11' E 139°48'4 7.9
2018-Feb-18 19:27N 35°15' E 139°45'510.6
2018-Feb-18 19:00N 35°19' E 139°43'510.6
2018-Feb-18 18:30N 35°24' E 139°42'510.1
2018-Feb-18 17:58N 35°29' E 139°43'2 0.2
2018-Feb-18 06:34N 35°31' E 139°44'0 0.0
2018-Feb-18 06:22N 35°31' E 139°44'0 0.0
2018-Feb-18 05:04N 35°31' E 139°44'0 0.0
2018-Feb-18 04:58N 35°31' E 139°44'0 0.0
2018-Feb-18 04:22N 35°31' E 139°44'0 0.0
2018-Feb-18 03:53N 35°31' E 139°44'0 0.0
2018-Feb-18 03:29N 35°31' E 139°44'0 0.0
2018-Feb-18 02:25N 35°31' E 139°44'4 8.0
2018-Feb-18 01:58N 35°29' E 139°48'4 9.3
2018-Feb-18 01:30N 35°24' E 139°46'4 8.9
2018-Feb-18 01:00N 35°20' E 139°44'6 9.3
2018-Feb-18 00:23N 35°15' E 139°47'4 9.6
2018-Feb-18 00:00N 35°11' E 139°47'1 1.2
2018-Feb-17 23:24N 35°11' E 139°47'2 4.2
2018-Feb-17 22:56N 35°12' E 139°46'512.1
2018-Feb-17 22:30N 35°17' E 139°44'510.8
2018-Feb-17 22:00N 35°22' E 139°42'611.0
2018-Feb-17 21:30N 35°28' E 139°45'3 1.2
2018-Feb-17 18:42N 35°31' E 139°44'0 0.0
2018-Feb-17 18:27N 35°31' E 139°44'0 0.0
2018-Feb-17 17:06N 35°31' E 139°44'0 0.0
2018-Feb-17 12:48N 35°31' E 139°44'0 0.0
2018-Feb-17 09:33N 35°31' E 139°44'0 0.0
2018-Feb-17 08:19N 35°31' E 139°44'0 0.0
2018-Feb-17 07:46N 35°31' E 139°44'0 0.0
2018-Feb-17 07:28N 35°31' E 139°44'0 0.0
2018-Feb-17 06:40N 35°31' E 139°44'0 0.0
2018-Feb-17 06:28N 35°31' E 139°44'0 0.0
2018-Feb-17 05:43N 35°31' E 139°44'0 0.0
2018-Feb-17 04:03N 35°31' E 139°44'0 0.0
2018-Feb-17 03:33N 35°31' E 139°44'0 0.0
2018-Feb-17 03:18N 35°31' E 139°44'0 0.0
2018-Feb-17 02:57N 35°31' E 139°44'0 0.0
2018-Feb-17 01:42N 35°31' E 139°44'0 0.0
2018-Feb-17 01:27N 35°31' E 139°44'0 0.0
2018-Feb-17 00:57N 35°31' E 139°44'0 0.0
2018-Feb-17 00:27N 35°31' E 139°44'0 0.0
2018-Feb-16 23:51N 35°31' E 139°44'1 1.5
2018-Feb-16 23:30N 35°31' E 139°45'4 8.9
2018-Feb-16 23:00N 35°26' E 139°47'510.5
2018-Feb-16 22:30N 35°21' E 139°45'610.1
2018-Feb-16 21:51N 35°15' E 139°47'510.0
2018-Feb-16 21:24N 35°10' E 139°47'0 1.0
2018-Feb-16 20:55N 35°11' E 139°47'3 6.0
2018-Feb-16 20:25N 35°13' E 139°45'510.8
2018-Feb-16 20:00N 35°18' E 139°43'510.6
2018-Feb-16 19:30N 35°23' E 139°42'510.4
2018-Feb-16 18:59N 35°28' E 139°45'3 0.7
2018-Feb-16 14:07N 35°31' E 139°44'0 0.0
2018-Feb-16 12:53N 35°31' E 139°44'0 0.0
2018-Feb-16 09:20N 35°31' E 139°44'0 0.0
2018-Feb-16 08:44N 35°31' E 139°44'0 0.0
2018-Feb-16 08:17N 35°31' E 139°44'0 0.0
2018-Feb-16 07:59N 35°31' E 139°44'0 0.0
2018-Feb-16 02:41N 35°31' E 139°44'0 0.0
2018-Feb-16 01:14N 35°31' E 139°44'0 0.0
2018-Feb-15 22:53N 35°31' E 139°44'0 0.0
2018-Feb-15 22:29N 35°31' E 139°44'0 0.0
2018-Feb-15 21:53N 35°31' E 139°44'0 0.0
2018-Feb-15 18:29N 35°31' E 139°44'0 0.0
2018-Feb-15 16:35N 35°31' E 139°44'0 0.0
2018-Feb-15 14:48N 35°31' E 139°44'0 0.0
2018-Feb-15 12:12N 35°31' E 139°44'0 0.0
2018-Feb-15 10:36N 35°31' E 139°44'0 0.0
2018-Feb-15 08:51N 35°31' E 139°44'0 0.0
2018-Feb-15 08:27N 35°31' E 139°44'0 0.7
2018-Feb-15 08:00N 35°31' E 139°45'4 8.1
2018-Feb-15 07:30N 35°28' E 139°42'713.4
2018-Feb-15 07:00N 35°21' E 139°41'4 2.5
2018-Feb-15 05:24N 35°17' E 139°41'2 4.2
2018-Feb-15 04:57N 35°18' E 139°43'0 0.4
2018-Feb-15 04:26N 35°18' E 139°43'  

Dump ship's entire track history